sensor_id;sensor_type;location;lat;lon;timestamp;temperature;humidity
3356;DHT22;1691;52.486;13.374;2023-03-23T00:00:02;12.50;82.80
3356;DHT22;1691;52.486;13.374;2023-03-23T00:02:31;12.50;83.00
3356;DHT22;1691;52.486;13.374;2023-03-23T00:05:07;12.40;83.20
3356;DHT22;1691;52.486;13.374;2023-03-23T00:07:34;12.40;83.40
3356;DHT22;1691;52.486;13.374;2023-03-23T00:10:02;12.40;83.40
3356;DHT22;1691;52.486;13.374;2023-03-23T00:12:30;12.30;83.60
3356;DHT22;1691;52.486;13.374;2023-03-23T00:15:03;12.30;83.80
3356;DHT22;1691;52.486;13.374;2023-03-23T00:17:32;12.20;83.90
3356;DHT22;1691;52.486;13.374;2023-03-23T00:19:59;12.20;84.10
3356;DHT22;1691;52.486;13.374;2023-03-23T00:22:27;12.20;84.10
3356;DHT22;1691;52.486;13.374;2023-03-23T00:24:54;12.10;84.30
3356;DHT22;1691;52.486;13.374;2023-03-23T00:27:21;12.10;84.50
3356;DHT22;1691;52.486;13.374;2023-03-23T00:29:49;12.10;84.70
3356;DHT22;1691;52.486;13.374;2023-03-23T00:32:20;12.10;84.90
3356;DHT22;1691;52.486;13.374;2023-03-23T00:34:46;12.00;84.90
3356;DHT22;1691;52.486;13.374;2023-03-23T00:37:14;12.00;85.10
3356;DHT22;1691;52.486;13.374;2023-03-23T00:39:42;12.00;85.10
3356;DHT22;1691;52.486;13.374;2023-03-23T00:42:11;12.00;85.20
3356;DHT22;1691;52.486;13.374;2023-03-23T00:44:39;12.00;85.20
3356;DHT22;1691;52.486;13.374;2023-03-23T00:47:05;11.90;85.40
3356;DHT22;1691;52.486;13.374;2023-03-23T00:49:34;11.90;85.40
3356;DHT22;1691;52.486;13.374;2023-03-23T00:52:01;11.90;85.40
3356;DHT22;1691;52.486;13.374;2023-03-23T00:54:28;11.80;85.60
3356;DHT22;1691;52.486;13.374;2023-03-23T00:56:54;11.80;85.60
3356;DHT22;1691;52.486;13.374;2023-03-23T00:59:21;11.80;85.80
3356;DHT22;1691;52.486;13.374;2023-03-23T01:01:48;11.80;85.80
3356;DHT22;1691;52.486;13.374;2023-03-23T01:04:15;11.80;85.80
3356;DHT22;1691;52.486;13.374;2023-03-23T01:06:43;11.80;86.00
3356;DHT22;1691;52.486;13.374;2023-03-23T01:09:13;11.70;86.00
3356;DHT22;1691;52.486;13.374;2023-03-23T01:11:45;11.70;86.00
3356;DHT22;1691;52.486;13.374;2023-03-23T01:14:14;11.70;86.20
3356;DHT22;1691;52.486;13.374;2023-03-23T01:16:41;11.70;86.20
3356;DHT22;1691;52.486;13.374;2023-03-23T01:19:07;11.70;86.20
3356;DHT22;1691;52.486;13.374;2023-03-23T01:21:33;11.60;86.50
3356;DHT22;1691;52.486;13.374;2023-03-23T01:24:00;11.60;86.50
3356;DHT22;1691;52.486;13.374;2023-03-23T01:26:27;11.60;86.70
3356;DHT22;1691;52.486;13.374;2023-03-23T01:28:54;11.60;86.70
3356;DHT22;1691;52.486;13.374;2023-03-23T01:31:24;11.50;86.90
3356;DHT22;1691;52.486;13.374;2023-03-23T01:33:51;11.50;86.90
3356;DHT22;1691;52.486;13.374;2023-03-23T01:36:20;11.50;87.10
3356;DHT22;1691;52.486;13.374;2023-03-23T01:38:48;11.50;87.10
3356;DHT22;1691;52.486;13.374;2023-03-23T01:41:16;11.40;87.30
3356;DHT22;1691;52.486;13.374;2023-03-23T01:43:59;11.40;87.30
3356;DHT22;1691;52.486;13.374;2023-03-23T01:46:36;11.40;87.30
3356;DHT22;1691;52.486;13.374;2023-03-23T01:49:07;11.40;87.50
3356;DHT22;1691;52.486;13.374;2023-03-23T01:51:39;11.40;87.50
3356;DHT22;1691;52.486;13.374;2023-03-23T01:54:11;11.30;87.70
3356;DHT22;1691;52.486;13.374;2023-03-23T01:56:42;11.30;87.70
3356;DHT22;1691;52.486;13.374;2023-03-23T01:59:12;11.40;87.90
3356;DHT22;1691;52.486;13.374;2023-03-23T02:01:39;11.40;87.90
3356;DHT22;1691;52.486;13.374;2023-03-23T02:04:12;11.40;88.00
3356;DHT22;1691;52.486;13.374;2023-03-23T02:06:40;11.40;88.00
3356;DHT22;1691;52.486;13.374;2023-03-23T02:09:07;11.50;87.90
3356;DHT22;1691;52.486;13.374;2023-03-23T02:11:33;11.50;87.90
3356;DHT22;1691;52.486;13.374;2023-03-23T02:14:00;11.50;87.90
3356;DHT22;1691;52.486;13.374;2023-03-23T02:16:29;11.60;87.90
3356;DHT22;1691;52.486;13.374;2023-03-23T02:25:11;11.50;87.70
3356;DHT22;1691;52.486;13.374;2023-03-23T02:36:20;11.70;87.50
3356;DHT22;1691;52.486;13.374;2023-03-23T02:41:55;11.90;87.30
3356;DHT22;1691;52.486;13.374;2023-03-23T02:44:25;11.90;87.10
3356;DHT22;1691;52.486;13.374;2023-03-23T02:46:56;12.00;86.90
3356;DHT22;1691;52.486;13.374;2023-03-23T02:49:25;12.00;86.90
3356;DHT22;1691;52.486;13.374;2023-03-23T02:51:53;12.10;86.70
3356;DHT22;1691;52.486;13.374;2023-03-23T02:54:23;12.10;86.90
3356;DHT22;1691;52.486;13.374;2023-03-23T02:56:52;12.10;87.10
3356;DHT22;1691;52.486;13.374;2023-03-23T02:59:18;12.10;87.50
3356;DHT22;1691;52.486;13.374;2023-03-23T03:01:50;12.10;87.70
3356;DHT22;1691;52.486;13.374;2023-03-23T03:04:22;12.10;88.00
3356;DHT22;1691;52.486;13.374;2023-03-23T03:07:07;12.10;88.40
3356;DHT22;1691;52.486;13.374;2023-03-23T03:13:08;12.20;88.40
3356;DHT22;1691;52.486;13.374;2023-03-23T03:15:47;12.10;88.60
3356;DHT22;1691;52.486;13.374;2023-03-23T03:18:39;12.20;88.60
3356;DHT22;1691;52.486;13.374;2023-03-23T03:21:09;12.20;88.80
3356;DHT22;1691;52.486;13.374;2023-03-23T03:23:39;12.20;88.80
3356;DHT22;1691;52.486;13.374;2023-03-23T03:26:10;12.20;89.00
3356;DHT22;1691;52.486;13.374;2023-03-23T03:28:38;12.30;89.00
3356;DHT22;1691;52.486;13.374;2023-03-23T03:31:06;12.30;89.00
3356;DHT22;1691;52.486;13.374;2023-03-23T03:33:33;12.30;89.00
3356;DHT22;1691;52.486;13.374;2023-03-23T03:36:02;12.30;89.00
3356;DHT22;1691;52.486;13.374;2023-03-23T03:38:29;12.30;89.00
3356;DHT22;1691;52.486;13.374;2023-03-23T03:40:56;12.30;89.20
3356;DHT22;1691;52.486;13.374;2023-03-23T03:43:22;12.30;89.00
3356;DHT22;1691;52.486;13.374;2023-03-23T03:45:48;12.40;88.80
3356;DHT22;1691;52.486;13.374;2023-03-23T03:48:14;12.40;88.60
3356;DHT22;1691;52.486;13.374;2023-03-23T03:50:40;12.40;88.80
3356;DHT22;1691;52.486;13.374;2023-03-23T03:53:06;12.40;88.80
3356;DHT22;1691;52.486;13.374;2023-03-23T03:55:33;12.40;89.20
3356;DHT22;1691;52.486;13.374;2023-03-23T03:58:04;12.40;89.30
3356;DHT22;1691;52.486;13.374;2023-03-23T04:00:30;12.30;89.70
3356;DHT22;1691;52.486;13.374;2023-03-23T04:02:56;12.30;90.10
3356;DHT22;1691;52.486;13.374;2023-03-23T04:05:25;12.30;90.10
3356;DHT22;1691;52.486;13.374;2023-03-23T04:07:55;12.30;90.10
3356;DHT22;1691;52.486;13.374;2023-03-23T04:10:28;12.30;90.30
3356;DHT22;1691;52.486;13.374;2023-03-23T04:12:55;12.30;90.30
3356;DHT22;1691;52.486;13.374;2023-03-23T04:15:22;12.30;90.30
3356;DHT22;1691;52.486;13.374;2023-03-23T04:17:48;12.30;90.40
3356;DHT22;1691;52.486;13.374;2023-03-23T04:20:15;12.30;90.40
3356;DHT22;1691;52.486;13.374;2023-03-23T04:22:46;12.30;90.50
3356;DHT22;1691;52.486;13.374;2023-03-23T04:25:16;12.30;90.40
3356;DHT22;1691;52.486;13.374;2023-03-23T04:27:47;12.30;90.50
3356;DHT22;1691;52.486;13.374;2023-03-23T04:30:24;12.30;90.50
3356;DHT22;1691;52.486;13.374;2023-03-23T04:32:53;12.30;90.50
3356;DHT22;1691;52.486;13.374;2023-03-23T04:35:23;12.30;90.50
3356;DHT22;1691;52.486;13.374;2023-03-23T04:37:53;12.30;90.50
3356;DHT22;1691;52.486;13.374;2023-03-23T04:40:20;12.30;90.60
3356;DHT22;1691;52.486;13.374;2023-03-23T04:42:47;12.30;90.70
3356;DHT22;1691;52.486;13.374;2023-03-23T04:45:16;12.30;90.80
3356;DHT22;1691;52.486;13.374;2023-03-23T04:47:48;12.30;91.00
3356;DHT22;1691;52.486;13.374;2023-03-23T04:50:20;12.30;91.10
3356;DHT22;1691;52.486;13.374;2023-03-23T04:52:49;12.30;91.30
3356;DHT22;1691;52.486;13.374;2023-03-23T04:55:18;12.30;91.40
3356;DHT22;1691;52.486;13.374;2023-03-23T04:57:46;12.30;91.50
3356;DHT22;1691;52.486;13.374;2023-03-23T05:00:12;12.30;91.60
3356;DHT22;1691;52.486;13.374;2023-03-23T05:02:43;12.20;91.80
3356;DHT22;1691;52.486;13.374;2023-03-23T05:05:12;12.20;91.80
3356;DHT22;1691;52.486;13.374;2023-03-23T05:07:39;12.20;91.80
3356;DHT22;1691;52.486;13.374;2023-03-23T05:10:07;12.20;91.80
3356;DHT22;1691;52.486;13.374;2023-03-23T05:12:34;12.20;91.80
3356;DHT22;1691;52.486;13.374;2023-03-23T05:15:00;12.20;91.90
3356;DHT22;1691;52.486;13.374;2023-03-23T05:17:27;12.20;91.90
3356;DHT22;1691;52.486;13.374;2023-03-23T05:19:53;12.10;92.10
3356;DHT22;1691;52.486;13.374;2023-03-23T05:22:19;12.00;92.20
3356;DHT22;1691;52.486;13.374;2023-03-23T05:24:47;12.00;92.40
3356;DHT22;1691;52.486;13.374;2023-03-23T05:27:13;12.00;92.60
3356;DHT22;1691;52.486;13.374;2023-03-23T05:29:40;11.90;92.70
3356;DHT22;1691;52.486;13.374;2023-03-23T05:32:07;11.90;92.80
3356;DHT22;1691;52.486;13.374;2023-03-23T05:34:34;11.90;93.00
3356;DHT22;1691;52.486;13.374;2023-03-23T05:37:01;11.80;93.10
3356;DHT22;1691;52.486;13.374;2023-03-23T05:39:29;11.80;93.20
3356;DHT22;1691;52.486;13.374;2023-03-23T05:41:56;11.80;93.40
3356;DHT22;1691;52.486;13.374;2023-03-23T05:44:22;11.80;93.40
3356;DHT22;1691;52.486;13.374;2023-03-23T05:46:49;11.80;93.60
3356;DHT22;1691;52.486;13.374;2023-03-23T05:49:16;11.80;93.80
3356;DHT22;1691;52.486;13.374;2023-03-23T05:51:43;11.80;94.00
3356;DHT22;1691;52.486;13.374;2023-03-23T05:54:09;11.70;94.20
3356;DHT22;1691;52.486;13.374;2023-03-23T05:56:36;11.70;94.30
3356;DHT22;1691;52.486;13.374;2023-03-23T05:59:02;11.70;94.50
3356;DHT22;1691;52.486;13.374;2023-03-23T06:01:29;11.70;94.60
3356;DHT22;1691;52.486;13.374;2023-03-23T06:03:55;11.70;94.80
3356;DHT22;1691;52.486;13.374;2023-03-23T06:06:28;11.60;95.00
3356;DHT22;1691;52.486;13.374;2023-03-23T06:08:58;11.60;95.20
3356;DHT22;1691;52.486;13.374;2023-03-23T06:11:24;11.60;95.50
3356;DHT22;1691;52.486;13.374;2023-03-23T06:13:52;11.50;95.70
3356;DHT22;1691;52.486;13.374;2023-03-23T06:16:19;11.50;96.00
3356;DHT22;1691;52.486;13.374;2023-03-23T06:18:45;11.40;96.40
3356;DHT22;1691;52.486;13.374;2023-03-23T06:21:12;11.40;96.80
3356;DHT22;1691;52.486;13.374;2023-03-23T06:23:38;11.40;97.20
3356;DHT22;1691;52.486;13.374;2023-03-23T06:26:07;11.30;97.50
3356;DHT22;1691;52.486;13.374;2023-03-23T06:28:34;11.30;97.90
3356;DHT22;1691;52.486;13.374;2023-03-23T06:31:01;11.30;98.10
3356;DHT22;1691;52.486;13.374;2023-03-23T06:33:30;11.30;98.40
3356;DHT22;1691;52.486;13.374;2023-03-23T06:35:57;11.30;98.70
3356;DHT22;1691;52.486;13.374;2023-03-23T06:38:23;11.30;98.70
3356;DHT22;1691;52.486;13.374;2023-03-23T06:40:52;11.40;98.70
3356;DHT22;1691;52.486;13.374;2023-03-23T06:43:18;11.40;98.70
3356;DHT22;1691;52.486;13.374;2023-03-23T06:45:44;11.40;98.70
3356;DHT22;1691;52.486;13.374;2023-03-23T06:48:10;11.50;98.70
3356;DHT22;1691;52.486;13.374;2023-03-23T06:50:36;11.50;98.70
3356;DHT22;1691;52.486;13.374;2023-03-23T06:53:02;11.60;98.70
3356;DHT22;1691;52.486;13.374;2023-03-23T06:55:28;11.60;98.70
3356;DHT22;1691;52.486;13.374;2023-03-23T06:57:54;11.60;98.70
3356;DHT22;1691;52.486;13.374;2023-03-23T07:00:20;11.70;98.70
3356;DHT22;1691;52.486;13.374;2023-03-23T07:02:46;11.70;98.70
3356;DHT22;1691;52.486;13.374;2023-03-23T07:05:13;11.70;98.70
3356;DHT22;1691;52.486;13.374;2023-03-23T07:07:40;11.80;98.70
3356;DHT22;1691;52.486;13.374;2023-03-23T07:10:08;11.80;98.70
3356;DHT22;1691;52.486;13.374;2023-03-23T07:12:35;11.80;98.70
3356;DHT22;1691;52.486;13.374;2023-03-23T07:15:05;11.90;98.70
3356;DHT22;1691;52.486;13.374;2023-03-23T07:17:33;11.90;98.70
3356;DHT22;1691;52.486;13.374;2023-03-23T07:19:59;11.90;98.70
3356;DHT22;1691;52.486;13.374;2023-03-23T07:22:25;11.90;98.70
3356;DHT22;1691;52.486;13.374;2023-03-23T07:24:51;11.90;98.70
3356;DHT22;1691;52.486;13.374;2023-03-23T07:27:17;11.90;98.70
3356;DHT22;1691;52.486;13.374;2023-03-23T07:29:43;11.90;98.70
3356;DHT22;1691;52.486;13.374;2023-03-23T07:32:11;11.90;98.70
3356;DHT22;1691;52.486;13.374;2023-03-23T07:34:38;11.90;98.70
3356;DHT22;1691;52.486;13.374;2023-03-23T07:37:05;11.90;98.70
3356;DHT22;1691;52.486;13.374;2023-03-23T07:39:31;11.90;98.70
3356;DHT22;1691;52.486;13.374;2023-03-23T07:41:58;11.90;98.70
3356;DHT22;1691;52.486;13.374;2023-03-23T07:44:24;12.00;98.70
3356;DHT22;1691;52.486;13.374;2023-03-23T07:46:50;12.00;98.70
3356;DHT22;1691;52.486;13.374;2023-03-23T07:49:17;12.00;98.70
3356;DHT22;1691;52.486;13.374;2023-03-23T07:51:45;12.10;98.70
3356;DHT22;1691;52.486;13.374;2023-03-23T07:54:12;12.10;98.70
3356;DHT22;1691;52.486;13.374;2023-03-23T07:56:39;12.20;98.70
3356;DHT22;1691;52.486;13.374;2023-03-23T07:59:06;12.30;98.70
3356;DHT22;1691;52.486;13.374;2023-03-23T08:01:33;12.30;98.70
3356;DHT22;1691;52.486;13.374;2023-03-23T08:03:59;12.40;98.70
3356;DHT22;1691;52.486;13.374;2023-03-23T08:06:26;12.40;98.70
3356;DHT22;1691;52.486;13.374;2023-03-23T08:08:53;12.40;98.70
3356;DHT22;1691;52.486;13.374;2023-03-23T08:11:20;12.50;98.70
3356;DHT22;1691;52.486;13.374;2023-03-23T08:13:47;12.50;98.70
3356;DHT22;1691;52.486;13.374;2023-03-23T08:16:13;12.60;98.70
3356;DHT22;1691;52.486;13.374;2023-03-23T08:18:39;12.60;98.70
3356;DHT22;1691;52.486;13.374;2023-03-23T08:21:06;12.70;98.70
3356;DHT22;1691;52.486;13.374;2023-03-23T08:23:36;12.80;98.70
3356;DHT22;1691;52.486;13.374;2023-03-23T08:26:04;12.80;98.70
3356;DHT22;1691;52.486;13.374;2023-03-23T08:28:33;12.80;98.70
3356;DHT22;1691;52.486;13.374;2023-03-23T08:30:59;12.90;98.70
3356;DHT22;1691;52.486;13.374;2023-03-23T08:33:26;12.90;98.70
3356;DHT22;1691;52.486;13.374;2023-03-23T08:35:57;12.90;98.70
3356;DHT22;1691;52.486;13.374;2023-03-23T08:38:24;12.90;98.70
3356;DHT22;1691;52.486;13.374;2023-03-23T08:40:51;12.90;98.70
3356;DHT22;1691;52.486;13.374;2023-03-23T08:43:18;12.90;98.70
3356;DHT22;1691;52.486;13.374;2023-03-23T08:45:44;12.90;98.70
3356;DHT22;1691;52.486;13.374;2023-03-23T08:48:09;12.90;98.70
3356;DHT22;1691;52.486;13.374;2023-03-23T08:50:36;13.00;98.70
3356;DHT22;1691;52.486;13.374;2023-03-23T08:53:02;13.00;98.70
3356;DHT22;1691;52.486;13.374;2023-03-23T08:55:28;13.10;98.70
3356;DHT22;1691;52.486;13.374;2023-03-23T08:57:55;13.20;98.70
3356;DHT22;1691;52.486;13.374;2023-03-23T09:00:21;13.30;98.70
3356;DHT22;1691;52.486;13.374;2023-03-23T09:02:52;13.40;98.70
3356;DHT22;1691;52.486;13.374;2023-03-23T09:05:21;13.40;98.70
3356;DHT22;1691;52.486;13.374;2023-03-23T09:07:52;13.50;98.70
3356;DHT22;1691;52.486;13.374;2023-03-23T09:10:20;13.90;98.70
3356;DHT22;1691;52.486;13.374;2023-03-23T09:12:47;14.30;98.70
3356;DHT22;1691;52.486;13.374;2023-03-23T09:15:16;14.50;98.70
3356;DHT22;1691;52.486;13.374;2023-03-23T09:17:45;14.60;98.70
3356;DHT22;1691;52.486;13.374;2023-03-23T09:20:16;14.60;98.60
3356;DHT22;1691;52.486;13.374;2023-03-23T09:22:47;14.50;98.20
3356;DHT22;1691;52.486;13.374;2023-03-23T09:25:17;14.50;98.10
3356;DHT22;1691;52.486;13.374;2023-03-23T09:27:51;14.40;98.10
3356;DHT22;1691;52.486;13.374;2023-03-23T09:30:23;14.40;97.90
3356;DHT22;1691;52.486;13.374;2023-03-23T09:32:52;14.50;97.90
3356;DHT22;1691;52.486;13.374;2023-03-23T09:35:19;14.60;97.80
3356;DHT22;1691;52.486;13.374;2023-03-23T09:37:48;14.80;97.60
3356;DHT22;1691;52.486;13.374;2023-03-23T09:40:19;15.20;97.20
3356;DHT22;1691;52.486;13.374;2023-03-23T09:43:03;15.60;96.60
3356;DHT22;1691;52.486;13.374;2023-03-23T09:48:53;16.90;94.70
3356;DHT22;1691;52.486;13.374;2023-03-23T09:54:30;17.70;92.20
3356;DHT22;1691;52.486;13.374;2023-03-23T09:57:03;17.80;91.50
3356;DHT22;1691;52.486;13.374;2023-03-23T09:59:51;17.80;90.80
3356;DHT22;1691;52.486;13.374;2023-03-23T10:02:28;17.80;90.10
3356;DHT22;1691;52.486;13.374;2023-03-23T10:07:44;17.60;89.00
3356;DHT22;1691;52.486;13.374;2023-03-23T10:10:13;17.50;88.40
3356;DHT22;1691;52.486;13.374;2023-03-23T10:12:45;17.30;88.00
3356;DHT22;1691;52.486;13.374;2023-03-23T10:15:31;17.00;87.90
3356;DHT22;1691;52.486;13.374;2023-03-23T10:18:23;16.90;87.70
3356;DHT22;1691;52.486;13.374;2023-03-23T10:21:15;16.70;87.30
3356;DHT22;1691;52.486;13.374;2023-03-23T10:23:51;16.60;87.90
3356;DHT22;1691;52.486;13.374;2023-03-23T10:26:31;16.50;87.50
3356;DHT22;1691;52.486;13.374;2023-03-23T10:29:52;16.50;87.10
3356;DHT22;1691;52.486;13.374;2023-03-23T10:34:55;16.50;86.70
3356;DHT22;1691;52.486;13.374;2023-03-23T10:37:31;16.70;86.40
3356;DHT22;1691;52.486;13.374;2023-03-23T10:40:03;16.80;85.80
3356;DHT22;1691;52.486;13.374;2023-03-23T10:42:34;17.00;85.20
3356;DHT22;1691;52.486;13.374;2023-03-23T10:48:00;17.10;83.60
3356;DHT22;1691;52.486;13.374;2023-03-23T10:50:38;17.10;83.80
3356;DHT22;1691;52.486;13.374;2023-03-23T10:53:29;17.10;83.40
3356;DHT22;1691;52.486;13.374;2023-03-23T10:55:59;17.00;82.60
3356;DHT22;1691;52.486;13.374;2023-03-23T10:58:28;16.90;83.00
3356;DHT22;1691;52.486;13.374;2023-03-23T11:01:01;16.80;82.80
3356;DHT22;1691;52.486;13.374;2023-03-23T11:03:40;16.80;83.00
3356;DHT22;1691;52.486;13.374;2023-03-23T11:06:20;16.70;82.60
3356;DHT22;1691;52.486;13.374;2023-03-23T11:08:54;16.70;82.40
3356;DHT22;1691;52.486;13.374;2023-03-23T11:11:27;16.60;82.40
3356;DHT22;1691;52.486;13.374;2023-03-23T11:14:14;16.60;82.40
3356;DHT22;1691;52.486;13.374;2023-03-23T11:16:56;16.60;82.30
3356;DHT22;1691;52.486;13.374;2023-03-23T11:19:34;16.60;82.30
3356;DHT22;1691;52.486;13.374;2023-03-23T11:22:08;16.60;81.90
3356;DHT22;1691;52.486;13.374;2023-03-23T11:24:45;16.60;81.90
3356;DHT22;1691;52.486;13.374;2023-03-23T11:27:13;16.60;81.50
3356;DHT22;1691;52.486;13.374;2023-03-23T11:29:56;16.60;81.30
3356;DHT22;1691;52.486;13.374;2023-03-23T11:32:29;16.60;81.10
3356;DHT22;1691;52.486;13.374;2023-03-23T11:34:59;16.70;81.30
3356;DHT22;1691;52.486;13.374;2023-03-23T11:37:33;16.80;81.10
3356;DHT22;1691;52.486;13.374;2023-03-23T11:45:22;17.00;79.70
3356;DHT22;1691;52.486;13.374;2023-03-23T11:51:06;17.20;79.10
3356;DHT22;1691;52.486;13.374;2023-03-23T11:59:08;17.60;78.20
3356;DHT22;1691;52.486;13.374;2023-03-23T12:11:15;17.90;75.90
3356;DHT22;1691;52.486;13.374;2023-03-23T12:13:46;17.90;75.70
3356;DHT22;1691;52.486;13.374;2023-03-23T12:16:26;17.80;75.60
3356;DHT22;1691;52.486;13.374;2023-03-23T12:19:30;17.90;75.20
3356;DHT22;1691;52.486;13.374;2023-03-23T12:25:16;17.80;74.80
3356;DHT22;1691;52.486;13.374;2023-03-23T12:28:21;17.90;74.40
3356;DHT22;1691;52.486;13.374;2023-03-23T12:31:01;17.80;74.20
3356;DHT22;1691;52.486;13.374;2023-03-23T12:34:01;17.80;74.40
3356;DHT22;1691;52.486;13.374;2023-03-23T12:42:45;17.90;73.30
3356;DHT22;1691;52.486;13.374;2023-03-23T12:48:31;17.90;73.30
3356;DHT22;1691;52.486;13.374;2023-03-23T12:51:15;17.80;73.30
3356;DHT22;1691;52.486;13.374;2023-03-23T12:54:35;17.80;73.10
3356;DHT22;1691;52.486;13.374;2023-03-23T13:02:34;17.80;72.90
3356;DHT22;1691;52.486;13.374;2023-03-23T13:05:08;17.90;72.20
3356;DHT22;1691;52.486;13.374;2023-03-23T13:07:45;18.00;72.00
3356;DHT22;1691;52.486;13.374;2023-03-23T13:10:22;18.00;71.60
3356;DHT22;1691;52.486;13.374;2023-03-23T13:12:52;18.20;70.90
3356;DHT22;1691;52.486;13.374;2023-03-23T13:15:48;18.30;70.50
3356;DHT22;1691;52.486;13.374;2023-03-23T13:21:31;18.30;69.80
3356;DHT22;1691;52.486;13.374;2023-03-23T13:24:02;18.30;69.60
3356;DHT22;1691;52.486;13.374;2023-03-23T13:26:31;18.20;69.60
3356;DHT22;1691;52.486;13.374;2023-03-23T13:29:00;18.20;69.80
3356;DHT22;1691;52.486;13.374;2023-03-23T13:31:38;18.10;69.60
3356;DHT22;1691;52.486;13.374;2023-03-23T13:34:17;18.10;69.40
3356;DHT22;1691;52.486;13.374;2023-03-23T13:37:24;18.10;68.80
3356;DHT22;1691;52.486;13.374;2023-03-23T13:39:57;18.00;68.50
3356;DHT22;1691;52.486;13.374;2023-03-23T13:42:54;18.10;68.80
3356;DHT22;1691;52.486;13.374;2023-03-23T13:48:19;18.00;68.30
3356;DHT22;1691;52.486;13.374;2023-03-23T13:51:01;18.00;67.50
3356;DHT22;1691;52.486;13.374;2023-03-23T13:53:31;17.90;67.50
3356;DHT22;1691;52.486;13.374;2023-03-23T13:56:42;17.90;67.70
3356;DHT22;1691;52.486;13.374;2023-03-23T13:59:15;17.90;66.80
3356;DHT22;1691;52.486;13.374;2023-03-23T14:01:43;17.90;67.40
3356;DHT22;1691;52.486;13.374;2023-03-23T14:04:17;17.90;67.00
3356;DHT22;1691;52.486;13.374;2023-03-23T14:06:49;17.90;66.20
3356;DHT22;1691;52.486;13.374;2023-03-23T14:09:33;18.00;65.90
3356;DHT22;1691;52.486;13.374;2023-03-23T14:12:16;18.00;65.10
3356;DHT22;1691;52.486;13.374;2023-03-23T14:14:56;18.00;64.90
3356;DHT22;1691;52.486;13.374;2023-03-23T14:17:32;18.10;64.60
3356;DHT22;1691;52.486;13.374;2023-03-23T14:20:06;18.00;64.40
3356;DHT22;1691;52.486;13.374;2023-03-23T14:22:37;18.00;64.20
3356;DHT22;1691;52.486;13.374;2023-03-23T14:25:15;18.00;64.00
3356;DHT22;1691;52.486;13.374;2023-03-23T14:27:43;18.00;63.80
3356;DHT22;1691;52.486;13.374;2023-03-23T14:30:18;18.00;64.00
3356;DHT22;1691;52.486;13.374;2023-03-23T14:32:48;17.90;64.00
3356;DHT22;1691;52.486;13.374;2023-03-23T14:35:26;17.80;64.40
3356;DHT22;1691;52.486;13.374;2023-03-23T14:37:55;17.70;64.60
3356;DHT22;1691;52.486;13.374;2023-03-23T14:40:22;17.50;64.90
3356;DHT22;1691;52.486;13.374;2023-03-23T14:42:52;17.40;65.30
3356;DHT22;1691;52.486;13.374;2023-03-23T14:45:21;17.40;65.70
3356;DHT22;1691;52.486;13.374;2023-03-23T14:47:59;17.30;65.90
3356;DHT22;1691;52.486;13.374;2023-03-23T14:50:30;17.20;66.10
3356;DHT22;1691;52.486;13.374;2023-03-23T14:53:21;17.10;66.80
3356;DHT22;1691;52.486;13.374;2023-03-23T14:55:50;17.00;67.20
3356;DHT22;1691;52.486;13.374;2023-03-23T14:58:20;17.00;67.70
3356;DHT22;1691;52.486;13.374;2023-03-23T15:03:25;16.80;68.50
3356;DHT22;1691;52.486;13.374;2023-03-23T15:05:57;16.80;68.80
3356;DHT22;1691;52.486;13.374;2023-03-23T15:08:32;16.90;69.00
3356;DHT22;1691;52.486;13.374;2023-03-23T15:13:49;17.10;68.80
3356;DHT22;1691;52.486;13.374;2023-03-23T15:16:22;17.00;68.80
3356;DHT22;1691;52.486;13.374;2023-03-23T15:19:01;17.00;69.20
3356;DHT22;1691;52.486;13.374;2023-03-23T15:21:34;17.00;69.40
3356;DHT22;1691;52.486;13.374;2023-03-23T15:24:03;17.00;69.60
3356;DHT22;1691;52.486;13.374;2023-03-23T15:26:47;17.00;69.40
3356;DHT22;1691;52.486;13.374;2023-03-23T15:29:19;17.00;69.40
3356;DHT22;1691;52.486;13.374;2023-03-23T15:31:52;17.00;69.40
3356;DHT22;1691;52.486;13.374;2023-03-23T15:34:36;17.00;69.40
3356;DHT22;1691;52.486;13.374;2023-03-23T15:37:17;16.90;69.00
3356;DHT22;1691;52.486;13.374;2023-03-23T15:39:52;16.90;69.00
3356;DHT22;1691;52.486;13.374;2023-03-23T15:42:25;16.80;68.70
3356;DHT22;1691;52.486;13.374;2023-03-23T15:52:42;16.70;67.00
3356;DHT22;1691;52.486;13.374;2023-03-23T15:55:22;16.70;66.80
3356;DHT22;1691;52.486;13.374;2023-03-23T15:57:51;16.70;66.20
3356;DHT22;1691;52.486;13.374;2023-03-23T16:00:20;16.70;66.60
3356;DHT22;1691;52.486;13.374;2023-03-23T16:02:55;16.70;66.20
3356;DHT22;1691;52.486;13.374;2023-03-23T16:05:26;16.70;66.10
3356;DHT22;1691;52.486;13.374;2023-03-23T16:07:53;16.70;65.90
3356;DHT22;1691;52.486;13.374;2023-03-23T16:10:23;16.80;65.50
3356;DHT22;1691;52.486;13.374;2023-03-23T16:12:51;16.80;65.10
3356;DHT22;1691;52.486;13.374;2023-03-23T16:15:19;16.80;64.90
3356;DHT22;1691;52.486;13.374;2023-03-23T16:17:46;16.80;64.60
3356;DHT22;1691;52.486;13.374;2023-03-23T16:20:23;16.80;64.40
3356;DHT22;1691;52.486;13.374;2023-03-23T16:22:51;16.80;64.00
3356;DHT22;1691;52.486;13.374;2023-03-23T16:25:18;16.80;64.00
3356;DHT22;1691;52.486;13.374;2023-03-23T16:27:46;16.80;63.80
3356;DHT22;1691;52.486;13.374;2023-03-23T16:30:25;16.70;64.00
3356;DHT22;1691;52.486;13.374;2023-03-23T16:32:53;16.70;64.00
3356;DHT22;1691;52.486;13.374;2023-03-23T16:35:23;16.70;64.00
3356;DHT22;1691;52.486;13.374;2023-03-23T16:37:53;16.70;64.20
3356;DHT22;1691;52.486;13.374;2023-03-23T16:40:37;16.70;64.20
3356;DHT22;1691;52.486;13.374;2023-03-23T16:43:04;16.60;64.40
3356;DHT22;1691;52.486;13.374;2023-03-23T16:45:36;16.60;64.70
3356;DHT22;1691;52.486;13.374;2023-03-23T16:48:09;16.60;64.70
3356;DHT22;1691;52.486;13.374;2023-03-23T16:50:37;16.50;64.70
3356;DHT22;1691;52.486;13.374;2023-03-23T16:53:06;16.50;64.70
3356;DHT22;1691;52.486;13.374;2023-03-23T16:55:35;16.40;65.30
3356;DHT22;1691;52.486;13.374;2023-03-23T16:58:03;16.30;66.20
3356;DHT22;1691;52.486;13.374;2023-03-23T17:00:46;16.20;67.20
3356;DHT22;1691;52.486;13.374;2023-03-23T17:03:15;16.10;68.30
3356;DHT22;1691;52.486;13.374;2023-03-23T17:05:43;15.90;69.60
3356;DHT22;1691;52.486;13.374;2023-03-23T17:08:11;15.80;70.50
3356;DHT22;1691;52.486;13.374;2023-03-23T17:10:39;15.70;71.30
3356;DHT22;1691;52.486;13.374;2023-03-23T17:13:07;15.50;72.20
3356;DHT22;1691;52.486;13.374;2023-03-23T17:15:39;15.30;73.10
3356;DHT22;1691;52.486;13.374;2023-03-23T17:18:11;15.20;73.90
3356;DHT22;1691;52.486;13.374;2023-03-23T17:20:38;15.10;74.60
3356;DHT22;1691;52.486;13.374;2023-03-23T17:23:05;15.00;75.60
3356;DHT22;1691;52.486;13.374;2023-03-23T17:25:32;14.90;76.30
3356;DHT22;1691;52.486;13.374;2023-03-23T17:27:59;14.70;77.00
3356;DHT22;1691;52.486;13.374;2023-03-23T17:30:43;14.70;77.60
3356;DHT22;1691;52.486;13.374;2023-03-23T17:33:11;14.60;78.30
3356;DHT22;1691;52.486;13.374;2023-03-23T17:35:39;14.60;78.90
3356;DHT22;1691;52.486;13.374;2023-03-23T17:38:07;14.60;79.30
3356;DHT22;1691;52.486;13.374;2023-03-23T17:40:34;14.60;79.50
3356;DHT22;1691;52.486;13.374;2023-03-23T17:43:01;14.60;79.80
3356;DHT22;1691;52.486;13.374;2023-03-23T17:45:28;14.60;80.60